Terminal Aerodrome Forecast
Issued by NWS Wilmington, OH

Current Version | Previous Version | Graphics & Text | Print | Product List | Glossary On
Versions: 1 2 3 4 5 6 7 8 9 10 11 12 13 14 15 16
000
FTUS41 KILN 222332
TAFILN
TAF
KILN 222332Z 2300/2324 07007KT P6SM BKN200
     FM231700 12012G17KT P6SM -SHRA OVC035
     FM232000 11013G18KT 5SM -SHRA OVC030
     FM232100 11013G18KT P6SM -SHRA OVC040=

USA.gov is the U.S. government's official web portal to all federal, state and local government web resources and services.